Time;durP1;ratioP1;P1;durP2;ratioP2;P2;SDS_P1;SDS_P2;PMS_P1;PMS_P2;Temp;Humidity;BMP_temperature;BMP_pressure;BME280_temperature;BME280_humidity;BME280_pressure;Samples;Min_cycle;Max_cycle;Signal;HPM_P1;HPM_P2
2022/09/09 00:01:08;;;;;;;2.67;2.50;;;;;;;18.46;100.00;100652.25;5094790;28;20214;-62
2022/09/09 00:03:45;;;;;;;2.90;2.40;;;;;;;18.49;100.00;88676.78;5094655;28;20305;-62
2022/09/09 00:06:21;;;;;;;2.30;2.10;;;;;;;18.59;100.00;91683.84;5094927;28;20650;-62
2022/09/09 00:08:59;;;;;;;2.20;2.10;;;;;;;18.58;100.00;93677.56;5094991;28;20548;-61
2022/09/09 00:11:34;;;;;;;3.00;2.80;;;;;;;18.49;100.00;93330.50;5094557;28;20188;-61
2022/09/09 00:14:08;;;;;;;2.97;2.77;;;;;;;18.45;100.00;85018.28;5094791;28;20507;-61
2022/09/09 00:16:41;;;;;;;2.30;2.20;;;;;;;18.41;100.00;81695.63;5094766;28;20305;-61
2022/09/09 00:19:20;;;;;;;2.60;2.50;;;;;;;18.65;100.00;78745.38;5094766;28;20187;-61
2022/09/09 00:21:52;;;;;;;2.17;1.97;;;;;;;18.73;100.00;89708.72;5094869;28;20282;-62
2022/09/09 00:24:28;;;;;;;2.40;2.30;;;;;;;18.90;100.00;100060.16;5094691;28;20265;-61
2022/09/09 00:27:02;;;;;;;1.90;1.80;;;;;;;18.80;100.00;112739.16;5094348;28;20188;-63
2022/09/09 00:29:37;;;;;;;2.60;2.40;;;;;;;19.14;100.00;121856.97;5094181;28;20670;-61
2022/09/09 00:32:13;;;;;;;2.57;2.47;;;;;;;19.13;100.00;135649.06;5094492;28;20553;-62
2022/09/09 00:34:48;;;;;;;2.10;2.00;;;;;;;19.00;100.00;133261.09;5094120;28;20198;-62
2022/09/09 00:37:16;;;;;;;2.73;2.50;;;;;;;18.59;100.00;104678.06;5094139;28;20187;-62
2022/09/09 00:39:47;;;;;;;2.87;2.67;;;;;;;18.72;100.00;102698.28;5094564;28;20196;-62
2022/09/09 00:42:19;;;;;;;2.80;2.17;;;;;;;18.74;100.00;102700.91;5094080;28;20188;-62
2022/09/09 00:44:53;;;;;;;2.80;2.70;;;;;;;18.35;100.00;91978.13;5093857;28;20208;-62
2022/09/09 00:47:42;;;;;;;2.60;2.40;;;;;;;18.23;100.00;84323.00;5093966;28;20369;-61
2022/09/09 00:50:26;;;;;;;2.43;2.30;;;;;;;18.05;100.00;79658.09;5094126;28;20249;-61
2022/09/09 00:53:03;;;;;;;2.50;2.30;;;;;;;18.21;100.00;70418.59;5093683;28;20210;-61
2022/09/09 00:55:41;;;;;;;2.50;2.40;;;;;;;18.37;100.00;74404.66;5093576;28;20191;-61
2022/09/09 00:58:09;;;;;;;2.93;2.47;;;;;;;18.34;100.00;76386.13;5093070;28;20184;-61
2022/09/09 01:00:43;;;;;;;3.30;2.17;;;;;;;18.36;100.00;79699.53;5093772;28;20184;-62
2022/09/09 01:03:27;;;;;;;2.60;1.97;;;;;;;18.50;100.00;78724.56;5093824;28;20657;-61
2022/09/09 01:06:03;;;;;;;3.20;2.10;;;;;;;18.55;100.00;85695.91;5093728;28;20581;-62
2022/09/09 01:08:51;;;;;;;2.93;1.83;;;;;;;18.53;100.00;87353.28;5093460;28;20195;-61
2022/09/09 01:11:25;;;;;;;3.53;2.13;;;;;;;18.57;100.00;91680.75;5093720;28;20180;-61
2022/09/09 01:13:59;;;;;;;2.10;2.00;;;;;;;18.63;100.00;92355.34;5093727;28;20183;-61
2022/09/09 01:16:27;;;;;;;1.80;1.70;;;;;;;18.63;100.00;89362.59;5093177;28;20238;-62
2022/09/09 01:18:57;;;;;;;1.83;1.73;;;;;;;18.73;100.00;86053.53;5093170;28;20192;-62
2022/09/09 01:21:37;;;;;;;2.43;2.23;;;;;;;18.61;100.00;85372.69;5093095;28;20194;-60
2022/09/09 01:24:28;;;;;;;4.37;2.40;;;;;;;18.67;100.00;91695.53;5093250;28;20230;-62
2022/09/09 01:26:59;;;;;;;2.30;2.10;;;;;;;18.58;100.00;94011.13;5093170;28;20192;-62
2022/09/09 01:29:26;;;;;;;2.20;1.80;;;;;;;18.42;100.00;80702.53;5093003;28;20184;-61
2022/09/09 01:31:56;;;;;;;2.83;2.00;;;;;;;18.34;100.00;76717.09;5093391;28;20194;-61
2022/09/09 01:34:25;;;;;;;1.97;1.87;;;;;;;18.37;100.00;80032.22;5092919;28;20180;-61
2022/09/09 01:36:58;;;;;;;3.27;2.50;;;;;;;18.44;100.00;79379.75;5092884;28;20195;-61
2022/09/09 01:39:26;;;;;;;4.43;2.27;;;;;;;18.32;100.00;71092.13;5093291;28;20187;-61
2022/09/09 01:41:53;;;;;;;2.17;2.07;;;;;;;18.32;100.00;69439.63;5093033;28;20192;-61
2022/09/09 01:44:22;;;;;;;2.03;1.93;;;;;;;18.36;100.00;66143.41;5092700;28;20226;-61
2022/09/09 01:46:49;;;;;;;5.83;2.33;;;;;;;18.36;100.00;69114.69;5092831;28;20192;-62
2022/09/09 01:49:18;;;;;;;2.00;1.90;;;;;;;18.46;100.00;74746.31;5092745;28;20186;-61
2022/09/09 01:51:47;;;;;;;3.73;2.30;;;;;;;18.54;100.00;75418.47;5092844;28;20555;-62
2022/09/09 01:54:14;;;;;;;2.63;2.43;;;;;;;18.32;100.00;74066.91;5092778;28;20273;-62
2022/09/09 01:56:53;;;;;;;2.33;2.13;;;;;;;18.50;100.00;74420.53;5092770;28;20196;-62
2022/09/09 01:59:44;;;;;;;2.10;1.90;;;;;;;18.50;100.00;71774.59;5092445;28;20180;-63
2022/09/09 02:02:14;;;;;;;2.50;2.00;;;;;;;18.48;100.00;60879.53;5092690;28;20194;-62
2022/09/09 02:04:44;;;;;;;1.90;1.80;;;;;;;18.52;100.00;77402.31;5092840;28;20551;-62
2022/09/09 02:07:23;;;;;;;3.23;2.10;;;;;;;18.46;100.00;73753.81;5092274;28;20328;-62
2022/09/09 02:09:58;;;;;;;3.50;1.90;;;;;;;18.47;100.00;70118.28;5092573;28;20191;-62
2022/09/09 02:12:28;;;;;;;3.20;2.10;;;;;;;18.39;100.00;63507.69;5092125;28;20187;-62
2022/09/09 02:15:02;;;;;;;2.30;2.10;;;;;;;18.36;100.00;64493.78;5092139;28;20184;-61
2022/09/09 02:17:32;;;;;;;2.67;2.17;;;;;;;18.17;100.00;55910.84;5091974;28;20228;-62
2022/09/09 02:20:06;;;;;;;4.40;2.70;;;;;;;18.10;100.00;50645.78;5092045;28;20196;-62
2022/09/09 02:22:35;;;;;;;4.43;1.97;;;;;;;18.20;100.00;48356.88;5092234;28;20692;-62
2022/09/09 02:25:05;;;;;;;4.80;2.50;;;;;;;18.20;100.00;39179.66;5092520;28;20208;-62
2022/09/09 02:27:32;;;;;;;9.20;2.33;;;;;;;18.31;100.00;40824.44;5092407;28;20621;-61
2022/09/09 02:30:02;;;;;;;6.00;2.13;;;;;;;18.37;100.00;45089.19;5092519;28;20649;-61
2022/09/09 02:32:33;;;;;;;4.90;2.07;;;;;;;18.40;100.00;45091.94;5092004;28;20184;-62
2022/09/09 02:35:06;;;;;;;2.07;1.97;;;;;;;18.30;100.00;40823.72;5092233;28;20180;-62
2022/09/09 02:37:37;;;;;;;2.40;2.20;;;;;;;18.46;100.00;56596.59;5091952;28;20184;-61
2022/09/09 02:40:05;;;;;;;2.27;2.17;;;;;;;18.45;100.00;62854.72;5091911;28;20176;-62
2022/09/09 02:42:39;;;;;;;2.30;2.20;;;;;;;18.46;100.00;64834.78;5092164;28;20192;-61
2022/09/09 02:45:09;;;;;;;2.23;2.13;;;;;;;18.09;100.00;54916.19;5092085;28;20708;-62
2022/09/09 02:47:39;;;;;;;4.00;2.27;;;;;;;18.17;100.00;45402.06;5092339;28;20539;-61
2022/09/09 02:50:15;;;;;;;4.40;2.90;;;;;;;18.02;100.00;43751.13;5090403;28;20192;-61
2022/09/09 02:52:52;;;;;;;3.50;2.50;;;;;;;18.11;100.00;47036.59;5091894;28;20188;-61
2022/09/09 02:55:24;;;;;;;5.20;3.10;;;;;;;18.06;100.00;40806.84;5092112;28;20216;-61
2022/09/09 02:57:53;;;;;;;3.33;3.03;;;;;;;18.20;100.00;41799.06;5091593;28;20192;-61
2022/09/09 03:00:25;;;;;;;6.53;2.90;;;;;;;18.10;100.00;37536.94;5091659;28;20180;-61
2022/09/09 03:02:54;;;;;;;5.97;3.00;;;;;;;18.03;100.00;38513.56;5091951;28;20188;-61
2022/09/09 03:05:21;;;;;;;3.73;2.40;;;;;;;18.14;100.00;37212.50;5091508;28;20208;-61
2022/09/09 03:07:49;;;;;;;5.80;2.90;;;;;;;18.06;100.00;37207.22;5091475;28;20195;-60
2022/09/09 03:10:16;;;;;;;2.27;2.17;;;;;;;18.13;100.00;32636.00;5091982;28;20631;-62
2022/09/09 03:12:43;;;;;;;6.17;2.87;;;;;;;18.22;100.00;34928.75;5091462;28;20184;-62
2022/09/09 03:15:10;;;;;;;6.00;3.03;;;;;;;18.04;100.00;32304.19;5091874;28;20271;-61
2022/09/09 03:17:39;;;;;;;2.87;2.53;;;;;;;18.00;100.00;32628.41;5091314;28;20652;-62
2022/09/09 03:20:07;;;;;;;8.07;2.67;;;;;;;18.06;100.00;30999.41;5092293;28;20205;-61
2022/09/09 03:22:34;;;;;;;8.70;2.83;;;;;;;18.11;100.00;21223.03;5095900;28;20634;-61
2022/09/09 03:25:01;;;;;;;5.83;2.40;;;;;;;18.11;100.00;24153.75;5096045;28;20211;-62
2022/09/09 03:27:28;;;;;;;4.90;2.87;;;;;;;18.29;100.00;21230.22;5095848;28;20623;-61
2022/09/09 03:29:56;;;;;;;4.50;2.90;;;;;;;18.08;100.00;27411.66;5095766;28;20563;-62
2022/09/09 03:32:24;;;;;;;9.30;2.37;;;;;;;18.30;100.00;22533.03;5095369;28;20188;-61
2022/09/09 03:34:52;;;;;;;5.87;2.97;;;;;;;18.44;100.00;24168.28;5095319;28;20190;-62
2022/09/09 03:37:20;;;;;;;2.70;2.47;;;;;;;18.40;100.00;25470.72;5095594;28;20653;-61
2022/09/09 03:39:47;;;;;;;4.67;2.60;;;;;;;18.61;100.00;26459.25;5095646;28;20196;-61
2022/09/09 03:42:19;;;;;;;2.90;2.63;;;;;;;18.73;100.00;31363.38;5095159;28;20183;-61
2022/09/09 03:44:49;;;;;;;6.53;3.17;;;;;;;18.77;100.00;37253.44;5094945;28;20207;-62
2022/09/09 03:47:17;;;;;;;8.70;3.00;;;;;;;18.74;100.00;40527.31;5095156;28;20191;-61
2022/09/09 03:49:44;;;;;;;3.37;2.93;;;;;;;18.75;100.00;37579.53;5095207;28;20180;-62
2022/09/09 03:52:12;;;;;;;3.33;2.77;;;;;;;18.81;100.00;40531.94;5095007;28;20188;-61
2022/09/09 03:54:41;;;;;;;4.43;3.60;;;;;;;18.70;100.00;37904.28;5094825;28;20283;-61
2022/09/09 03:57:08;;;;;;;12.67;3.90;;;;;;;18.32;100.00;31993.47;5094839;28;20187;-61
2022/09/09 03:59:34;;;;;;;9.57;3.70;;;;;;;18.53;100.00;29392.44;5094746;28;20177;-61
2022/09/09 04:02:02;;;;;;;6.57;3.63;;;;;;;18.48;100.00;26126.75;5094879;28;20191;-61
2022/09/09 04:04:28;;;;;;;4.53;3.07;;;;;;;18.52;100.00;23519.94;5095047;28;20257;-62
2022/09/09 04:06:56;;;;;;;5.53;3.07;;;;;;;18.58;100.00;19613.50;5094607;28;20230;-62
2022/09/09 04:09:24;;;;;;;10.77;2.70;;;;;;;18.75;100.00;19945.16;5094620;28;20271;-62
2022/09/09 04:11:51;;;;;;;3.50;2.20;;;;;;;18.94;100.00;23538.28;5094622;28;20642;-61
2022/09/09 04:14:18;;;;;;;3.57;3.27;;;;;;;19.09;100.00;32037.47;5094826;28;20223;-61
2022/09/09 04:16:45;;;;;;;3.03;2.77;;;;;;;19.25;100.00;38923.53;5094436;28;20702;-61
2022/09/09 04:19:13;;;;;;;5.67;2.50;;;;;;;19.44;100.00;43531.00;5094291;28;20188;-62
2022/09/09 04:21:41;;;;;;;7.03;3.00;;;;;;;19.77;100.00;59032.91;5094612;28;20180;-60
2022/09/09 04:24:08;;;;;;;8.93;4.77;;;;;;;19.96;100.00;70626.72;5094621;28;20637;-62
2022/09/09 04:26:37;;;;;;;5.60;2.40;;;;;;;20.35;100.00;92621.31;5094235;28;20204;-61
2022/09/09 04:29:07;;;;;;;12.40;3.40;;;;;;;20.67;100.00;124861.94;5094542;28;20207;-62
2022/09/09 04:31:34;;;;;;;6.57;2.83;;;;;;;21.08;100.00;151336.06;5093135;28;20677;-62
2022/09/09 04:34:05;;;;;;;3.57;3.20;;;;;;;21.40;100.00;151418.94;5094431;28;20535;-62
2022/09/09 04:36:32;;;;;;;14.00;4.00;;;;;;;21.92;100.00;151547.66;5094462;28;20703;-62
2022/09/09 04:39:01;;;;;;;6.45;3.55;;;;;;;22.81;100.00;151772.19;5094288;28;20562;-63
2022/09/09 04:41:28;;;;;;;9.02;3.83;;;;;;;23.35;100.00;151908.69;5093967;28;20211;-62
2022/09/09 04:43:56;;;;;;;5.10;3.30;;;;;;;23.47;100.00;151939.34;5092568;28;20203;-62
2022/09/09 04:46:24;;;;;;;21.08;4.78;;;;;;;23.46;100.00;151936.84;5092492;28;20208;-61
2022/09/09 04:48:52;;;;;;;7.72;3.30;;;;;;;23.70;100.00;151996.81;5093175;28;20627;-62
2022/09/09 04:51:19;;;;;;;12.90;3.78;;;;;;;24.04;100.00;152083.59;5092833;28;20722;-62
2022/09/09 04:53:47;;;;;;;3.88;1.60;;;;;;;24.31;100.00;152151.34;5093987;28;20183;-62
2022/09/09 04:56:16;;;;;;;5.05;2.97;;;;;;;24.84;100.00;152286.69;5093956;28;20180;-62
2022/09/09 04:58:43;;;;;;;9.57;3.03;;;;;;;25.54;100.00;152463.09;5093579;28;20192;-62
2022/09/09 05:01:13;;;;;;;8.05;3.50;;;;;;;26.99;100.00;152830.09;5093944;28;20658;-62
2022/09/09 05:03:41;;;;;;;10.95;3.88;;;;;;;28.21;100.00;153138.59;5093796;28;20187;-62
2022/09/09 05:06:09;;;;;;;15.85;5.22;;;;;;;28.92;100.00;153317.88;5092367;28;20208;-61
2022/09/09 05:08:38;;;;;;;24.60;5.93;;;;;;;29.75;100.00;153527.97;5093360;28;20190;-61
2022/09/09 05:11:05;;;;;;;22.30;5.70;;;;;;;30.22;100.00;153648.47;5093529;28;20188;-61
2022/09/09 05:13:32;;;;;;;12.15;3.20;;;;;;;30.16;100.00;153633.13;5093555;28;20635;-61
2022/09/09 05:16:00;;;;;;;6.40;2.15;;;;;;;29.05;100.00;153352.47;5093122;28;20237;-63
2022/09/09 05:18:28;;;;;;;4.13;2.05;;;;;;;28.25;100.00;153148.84;5093344;28;20202;-61
2022/09/09 05:21:00;;;;;;;4.45;2.30;;;;;;;28.25;100.00;153148.84;5093109;28;20195;-61
2022/09/09 05:23:27;;;;;;;5.15;1.65;;;;;;;27.90;100.00;153059.16;5093418;28;20699;-61
2022/09/09 05:25:57;;;;;;;3.95;1.73;;;;;;;28.47;100.00;153205.19;5092932;28;20215;-61
2022/09/09 05:28:25;;;;;;;2.53;1.65;;;;;;;30.08;100.00;153612.63;5093297;28;20184;-61
2022/09/09 05:31:00;;;;;;;2.25;2.05;;;;;;;29.03;100.00;153347.31;5092804;28;20188;-62
2022/09/09 05:33:29;;;;;;;5.82;1.77;;;;;;;29.75;100.00;153529.25;5091426;28;20198;-62
2022/09/09 05:35:57;;;;;;;8.48;2.20;;;;;;;29.62;100.00;153494.72;5093016;28;20546;-61
2022/09/09 05:38:25;;;;;;;2.28;1.90;;;;;;;29.18;100.00;153384.47;5092607;28;20291;-62
2022/09/09 05:40:55;;;;;;;2.05;1.40;;;;;;;30.19;100.00;153640.81;5088596;28;20191;-62
2022/09/09 05:43:23;;;;;;;3.70;1.65;;;;;;;30.22;100.00;153648.47;5091269;28;20275;-64
2022/09/09 05:46:02;;;;;;;3.97;1.80;;;;;;;30.48;100.00;153712.63;5092841;28;20216;-63
2022/09/09 05:48:31;;;;;;;3.83;1.45;;;;;;;30.07;100.00;153610.06;5092808;28;20184;-63
2022/09/09 05:50:59;;;;;;;1.83;1.70;;;;;;;28.93;100.00;153320.44;5092964;28;20212;-63
2022/09/09 05:53:26;;;;;;;4.32;1.75;;;;;;;28.37;100.00;153178.25;5092793;28;20188;-62
2022/09/09 05:56:01;;;;;;;4.35;1.70;;;;;;;28.54;100.00;153223.09;5092817;28;20235;-62
2022/09/09 05:58:28;;;;;;;5.55;1.90;;;;;;;29.94;100.00;153578.03;5093076;28;20601;-64
2022/09/09 06:01:02;;;;;;;2.25;1.58;;;;;;;29.38;100.00;153435.75;5092654;28;20192;-63
2022/09/09 06:03:30;;;;;;;3.75;2.40;;;;;;;30.18;100.00;153638.25;5092217;28;20188;-61
2022/09/09 06:06:01;;;;;;;5.10;2.13;;;;;;;30.60;100.00;153743.38;5092462;28;20696;-63
2022/09/09 06:08:28;;;;;;;7.47;2.45;;;;;;;29.67;100.00;153507.47;5090885;28;20190;-62
2022/09/09 06:11:02;;;;;;;3.40;2.03;;;;;;;28.52;100.00;153217.94;5092460;28;20562;-62
2022/09/09 06:13:31;;;;;;;2.10;1.83;;;;;;;27.64;100.00;152995.19;5092281;28;20244;-63
2022/09/09 06:15:58;;;;;;;2.75;1.50;;;;;;;26.96;100.00;152822.44;5091856;28;20328;-62
2022/09/09 06:18:25;;;;;;;2.75;1.90;;;;;;;27.21;100.00;152885.09;5092324;28;20192;-62
2022/09/09 06:21:00;;;;;;;6.22;1.90;;;;;;;27.36;100.00;152923.50;5092266;28;20492;-61
2022/09/09 06:23:29;;;;;;;3.15;1.55;;;;;;;27.02;100.00;152836.50;5091923;28;20190;-61
2022/09/09 06:26:05;;;;;;;4.50;1.90;;;;;;;27.23;100.00;152890.25;5091740;28;20200;-63
2022/09/09 06:28:32;;;;;;;7.13;1.90;;;;;;;27.06;100.00;152848.03;5092103;28;20180;-62
2022/09/09 06:31:00;;;;;;;9.77;2.30;;;;;;;27.23;100.00;152890.25;5091758;28;20183;-63
2022/09/09 06:33:27;;;;;;;5.55;2.55;;;;;;;27.47;100.00;152951.69;5092093;28;20646;-62
2022/09/09 06:35:56;;;;;;;2.00;1.77;;;;;;;27.85;100.00;153047.66;5092093;28;20192;-63
2022/09/09 06:38:25;;;;;;;4.28;2.53;;;;;;;27.60;100.00;152984.97;5091877;28;20494;-61
2022/09/09 06:40:54;;;;;;;1.88;1.55;;;;;;;27.76;100.00;153023.31;5090495;28;20183;-62
2022/09/09 06:43:21;;;;;;;3.40;1.70;;;;;;;28.74;100.00;153273.03;5091824;28;20199;-61
2022/09/09 06:45:55;;;;;;;7.03;2.72;;;;;;;29.19;100.00;153387.06;5090548;28;20593;-62
2022/09/09 06:48:22;;;;;;;9.10;2.10;;;;;;;29.12;100.00;153369.09;5091955;28;20260;-62
2022/09/09 06:50:50;;;;;;;6.38;1.67;;;;;;;29.26;100.00;153404.97;5091633;28;20310;-61
2022/09/09 06:53:18;;;;;;;4.85;2.10;;;;;;;29.38;100.00;153434.47;5091759;28;20191;-62
2022/09/09 06:55:47;;;;;;;3.20;2.00;;;;;;;28.73;100.00;153270.47;5090952;28;20195;-62
2022/09/09 06:58:14;;;;;;;7.30;2.53;;;;;;;28.98;100.00;153333.25;5091719;28;20248;-62
2022/09/09 07:00:50;;;;;;;2.17;1.70;;;;;;;29.23;100.00;153396.00;5092098;28;20656;-62
2022/09/09 07:03:17;;;;;;;3.45;1.60;;;;;;;29.08;100.00;153358.84;5092004;28;20185;-61
2022/09/09 07:05:44;;;;;;;4.55;1.70;;;;;;;28.69;100.00;153260.19;5091633;28;20284;-62
2022/09/09 07:08:12;;;;;;;3.58;1.38;;;;;;;28.42;100.00;153191.06;5091655;28;20188;-62
2022/09/09 07:10:39;;;;;;;5.18;1.70;;;;;;;28.58;100.00;153233.31;5091455;28;20249;-61
2022/09/09 07:13:07;;;;;;;1.65;1.30;;;;;;;28.84;100.00;153297.38;5091153;28;20180;-63
2022/09/09 07:15:36;;;;;;;2.42;1.42;;;;;;;27.73;100.00;153015.66;5091878;28;20210;-61
2022/09/09 07:18:03;;;;;;;1.50;1.40;;;;;;;27.77;100.00;153025.91;5091205;28;20239;-61
2022/09/09 07:20:30;;;;;;;3.85;1.60;;;;;;;27.61;100.00;152987.53;5091659;28;20184;-63
2022/09/09 07:22:58;;;;;;;1.15;1.05;;;;;;;27.51;100.00;152961.91;5091106;28;20188;-63
2022/09/09 07:25:26;;;;;;;1.50;1.27;;;;;;;27.56;100.00;152974.72;5091403;28;20621;-63
2022/09/09 07:27:53;;;;;;;1.30;1.20;;;;;;;27.38;100.00;152928.59;5091389;28;20204;-62
2022/09/09 07:30:21;;;;;;;3.00;1.48;;;;;;;27.34;100.00;152918.38;5091431;28;20597;-62
2022/09/09 07:32:48;;;;;;;2.65;1.08;;;;;;;27.62;100.00;152988.81;5091372;28;20536;-63
2022/09/09 07:35:15;;;;;;;4.03;1.42;;;;;;;27.36;100.00;152923.50;5091220;28;20196;-63
2022/09/09 07:37:42;;;;;;;4.03;1.40;;;;;;;27.06;100.00;152846.75;5091054;28;20196;-62
2022/09/09 07:40:10;;;;;;;2.05;1.40;;;;;;;27.13;100.00;152864.63;5091620;28;20210;-63
2022/09/09 07:42:37;;;;;;;4.72;1.35;;;;;;;27.24;100.00;152892.81;5091031;28;20188;-64
2022/09/09 07:45:05;;;;;;;2.55;1.38;;;;;;;27.31;100.00;152910.69;5091469;28;20192;-63
2022/09/09 07:47:33;;;;;;;3.15;1.52;;;;;;;27.50;100.00;152959.34;5091339;28;20247;-63
2022/09/09 07:50:01;;;;;;;3.58;1.52;;;;;;;27.63;100.00;152991.34;5091105;28;20187;-62
2022/09/09 07:52:28;;;;;;;4.13;1.38;;;;;;;27.60;100.00;152984.97;5091056;28;20699;-63
2022/09/09 07:54:56;;;;;;;6.18;1.80;;;;;;;27.58;100.00;152979.81;5090789;28;20188;-63
2022/09/09 07:57:23;;;;;;;3.35;1.35;;;;;;;27.50;100.00;152959.34;5090830;28;20180;-63
2022/09/09 07:59:50;;;;;;;6.10;1.80;;;;;;;27.70;100.00;153010.56;5091073;28;20639;-63
2022/09/09 08:02:17;;;;;;;2.70;1.70;;;;;;;27.90;100.00;153060.47;5091198;28;20195;-62
2022/09/09 08:04:46;;;;;;;1.52;1.42;;;;;;;27.87;100.00;153051.50;5089952;28;20206;-61
2022/09/09 08:07:13;;;;;;;1.63;1.38;;;;;;;27.75;100.00;153022.09;5093679;28;20318;-63
2022/09/09 08:09:40;;;;;;;1.77;1.63;;;;;;;28.05;100.00;153097.59;5094701;28;20240;-63
2022/09/09 08:12:08;;;;;;;1.45;1.33;;;;;;;28.24;81.60;153146.25;5094517;28;20220;-63
2022/09/09 08:14:35;;;;;;;1.38;1.27;;;;;;;28.30;84.98;153161.66;5094575;28;20240;-61
2022/09/09 08:17:02;;;;;;;1.40;1.02;;;;;;;28.32;81.34;153166.75;5094716;28;20265;-62
2022/09/09 08:19:30;;;;;;;4.65;1.30;;;;;;;28.20;78.39;153136.03;5094889;28;20191;-62
2022/09/09 08:21:58;;;;;;;1.85;1.38;;;;;;;28.40;76.13;153187.22;5094562;28;20677;-62
2022/09/09 08:24:25;;;;;;;1.00;1.00;;;;;;;28.44;73.44;153197.47;5094201;28;20194;-62
2022/09/09 08:26:53;;;;;;;3.90;1.27;;;;;;;28.02;87.58;153089.88;5094040;28;20260;-63
2022/09/09 08:29:20;;;;;;;6.53;1.67;;;;;;;27.99;91.84;153083.50;5094587;28;20608;-61
2022/09/09 08:31:49;;;;;;;4.22;1.42;;;;;;;27.84;92.42;153045.09;5093995;28;20206;-62
2022/09/09 08:34:20;;;;;;;1.55;1.40;;;;;;;27.93;95.51;153066.84;5105373;28;20206;-62
2022/09/09 08:36:48;;;;;;;4.47;2.10;;;;;;;28.09;96.05;153109.13;5115312;28;20183;-62
2022/09/09 08:39:19;;;;;;;1.80;1.30;;;;;;;28.13;97.02;153119.34;5114883;28;20210;-63
2022/09/09 08:42:17;;;;;;;3.33;1.38;;;;;;;28.25;95.50;153148.84;5114447;28;20186;-63
2022/09/09 08:44:56;;;;;;;4.88;1.58;;;;;;;28.09;91.68;153107.84;5114293;28;20213;-62
2022/09/09 08:47:35;;;;;;;6.78;1.63;;;;;;;28.20;89.33;153134.75;5114501;28;20294;-62
2022/09/09 08:50:14;;;;;;;3.17;1.65;;;;;;;28.01;97.36;153087.31;5114634;28;20633;-62
2022/09/09 08:52:51;;;;;;;1.65;1.10;;;;;;;27.20;100.00;152882.56;5114176;28;20282;-62
2022/09/09 08:55:29;;;;;;;2.30;1.70;;;;;;;27.60;100.00;152984.97;5113569;28;20197;-62
2022/09/09 08:58:00;;;;;;;1.27;1.17;;;;;;;27.81;100.00;153036.13;5113879;28;20184;-61
2022/09/09 09:00:37;;;;;;;3.65;1.00;;;;;;;27.77;100.00;153027.19;5113808;28;20290;-62
2022/09/09 09:03:17;;;;;;;6.68;1.30;;;;;;;27.65;100.00;152996.47;5113929;28;20187;-62
2022/09/09 09:05:52;;;;;;;3.15;1.30;;;;;;;27.61;100.00;152987.53;5114056;28;20179;-63
2022/09/09 09:08:28;;;;;;;1.00;1.00;;;;;;;27.56;100.00;152973.44;5113721;28;20218;-62
2022/09/09 09:11:00;;;;;;;3.63;1.52;;;;;;;27.67;100.00;153002.84;5114512;28;20187;-63
2022/09/09 09:13:36;;;;;;;2.35;1.25;;;;;;;27.90;100.00;153059.16;5113982;28;20191;-62
2022/09/09 09:16:14;;;;;;;1.10;0.98;;;;;;;27.48;100.00;152952.97;5112744;28;20600;-62
2022/09/09 09:18:42;;;;;;;2.08;1.42;;;;;;;27.30;100.00;152908.13;5113407;28;20620;-61
2022/09/09 09:21:14;;;;;;;2.30;1.00;;;;;;;27.16;100.00;152873.59;5113786;28;20190;-63
2022/09/09 09:23:46;;;;;;;1.23;1.23;;;;;;;27.18;100.00;152877.44;5114104;27;20199;-63
2022/09/09 09:26:14;;;;;;;1.30;1.30;;;;;;;26.89;100.00;152804.53;5113677;28;20189;-62
2022/09/09 09:28:42;;;;;;;1.13;1.13;;;;;;;27.06;100.00;152848.03;5114165;28;20618;-62
2022/09/09 09:31:11;;;;;;;2.85;1.70;;;;;;;27.21;100.00;152885.09;5094196;28;20585;-63
2022/09/09 09:33:47;;;;;;;1.73;1.25;;;;;;;27.23;100.00;152890.25;5093358;28;20191;-63
2022/09/09 09:36:15;;;;;;;1.30;1.20;;;;;;;27.21;100.00;152885.09;5092914;28;20190;-62
2022/09/09 09:38:55;;;;;;;1.23;1.13;;;;;;;27.29;100.00;152905.56;5093199;28;20260;-63
2022/09/09 09:41:36;;;;;;;4.15;1.20;;;;;;;27.29;100.00;152905.56;5093176;28;20622;-63
2022/09/09 09:44:04;;;;;;;1.65;1.20;;;;;;;27.22;100.00;152887.66;5093140;28;20241;-61
2022/09/09 09:46:31;;;;;;;1.45;1.27;;;;;;;27.60;100.00;152983.66;5092800;28;20219;-62
2022/09/09 09:49:00;;;;;;;2.25;1.20;;;;;;;27.52;100.00;152963.22;5092793;28;20198;-63
2022/09/09 09:51:29;;;;;;;2.65;1.35;;;;;;;27.49;100.00;152956.81;5092410;28;20188;-62
2022/09/09 09:54:14;;;;;;;6.15;1.30;;;;;;;27.49;100.00;152956.81;5092236;28;20191;-63
2022/09/09 09:56:44;;;;;;;1.33;1.20;;;;;;;27.64;100.00;152993.91;5092415;28;20184;-63
2022/09/09 09:59:34;;;;;;;4.10;1.15;;;;;;;27.84;100.00;153043.84;5092446;28;20180;-64
2022/09/09 10:02:14;;;;;;;3.55;1.20;;;;;;;27.67;100.00;153001.56;5092636;28;20241;-62
2022/09/09 10:04:42;;;;;;;3.80;1.33;;;;;;;28.03;100.00;153093.75;5092506;28;20282;-64
2022/09/09 10:07:12;;;;;;;1.90;1.30;;;;;;;28.49;100.00;153210.25;5091977;28;20625;-62
2022/09/09 10:09:40;;;;;;;2.78;1.30;;;;;;;28.73;100.00;153269.25;5092265;28;20187;-65
2022/09/09 10:12:25;;;;;;;5.55;1.40;;;;;;;28.95;100.00;153326.81;5092203;28;20281;-65
2022/09/09 10:15:01;;;;;;;5.38;1.00;;;;;;;29.07;100.00;153355.03;5092463;28;20192;-66
2022/09/09 10:17:37;;;;;;;3.83;2.05;;;;;;;29.24;100.00;153399.81;5092385;28;20228;-65
2022/09/09 10:20:22;;;;;;;3.83;1.77;;;;;;;29.10;100.00;153362.72;5092737;28;20184;-66
2022/09/09 10:22:53;;;;;;;1.27;1.17;;;;;;;28.94;100.00;153323.03;5090995;28;20195;-65
2022/09/09 10:25:30;;;;;;;4.47;1.15;;;;;;;29.32;100.00;153419.13;5092097;28;20188;-65
2022/09/09 10:28:40;;;;;;;1.55;1.38;;;;;;;29.29;100.00;153412.69;5092277;28;20300;-66
2022/09/09 10:31:20;;;;;;;1.05;1.05;;;;;;;28.51;100.00;153215.41;5089755;28;20204;-64
2022/09/09 10:33:52;;;;;;;1.88;1.50;;;;;;;28.46;100.00;153202.59;5092524;28;20306;-63
2022/09/09 10:36:23;;;;;;;2.75;1.33;;;;;;;28.74;100.00;153271.75;5092408;28;20188;-63
2022/09/09 10:38:58;;;;;;;2.22;1.45;;;;;;;28.63;100.00;153244.84;5092296;28;20218;-64
2022/09/09 10:41:41;;;;;;;4.80;1.60;;;;;;;28.56;100.00;153228.19;5091665;28;20631;-63
2022/09/09 10:44:20;;;;;;;4.55;1.30;;;;;;;28.53;100.00;153220.50;5090431;28;20195;-63
2022/09/09 10:47:00;;;;;;;2.45;1.40;;;;;;;28.64;100.00;153247.41;5089901;28;20563;-63
2022/09/09 10:49:46;;;;;;;3.97;1.27;;;;;;;29.19;100.00;153387.06;5090024;28;20623;-63
2022/09/09 10:52:20;;;;;;;6.93;1.50;;;;;;;30.36;100.00;153684.38;5090394;28;20543;-63
2022/09/09 10:54:58;;;;;;;2.13;1.45;;;;;;;30.64;100.00;153753.69;5089349;28;20257;-62
2022/09/09 10:57:31;;;;;;;2.78;1.33;;;;;;;30.92;100.00;153825.47;5089067;28;20180;-63
2022/09/09 11:00:05;;;;;;;2.00;1.55;;;;;;;30.02;100.00;153597.25;5091374;28;20310;-63
2022/09/09 11:02:34;;;;;;;2.85;1.60;;;;;;;29.05;100.00;153352.47;5091387;28;20259;-63
2022/09/09 11:05:04;;;;;;;3.30;1.70;;;;;;;28.07;100.00;153102.69;5088424;28;20198;-62
2022/09/09 11:07:39;;;;;;;1.10;1.00;;;;;;;27.21;100.00;152885.09;5091063;28;20255;-62
2022/09/09 11:10:20;;;;;;;6.63;1.45;;;;;;;26.90;100.00;152805.81;5089113;28;20184;-63
2022/09/09 11:12:50;;;;;;;2.03;1.85;;;;;;;26.51;100.00;152708.59;5089043;28;20211;-63
2022/09/09 11:15:25;;;;;;;5.97;1.63;;;;;;;26.67;100.00;152749.50;5091339;28;20184;-63
2022/09/09 11:17:56;;;;;;;1.92;1.35;;;;;;;26.70;100.00;152755.88;5089584;28;20246;-63
2022/09/09 11:20:25;;;;;;;2.97;1.60;;;;;;;26.78;100.00;152776.31;5092060;28;20188;-63
2022/09/09 11:23:00;;;;;;;1.20;1.20;;;;;;;26.49;100.00;152703.44;5092159;28;20183;-61
2022/09/09 11:25:33;;;;;;;2.35;1.55;;;;;;;26.55;100.00;152717.53;5091865;28;20203;-62
2022/09/09 11:28:24;;;;;;;1.45;1.30;;;;;;;26.44;100.00;152689.41;5091594;28;20208;-63
2022/09/09 11:31:04;;;;;;;2.10;1.50;;;;;;;26.26;100.00;152645.94;5091742;28;20272;-62
2022/09/09 11:33:49;;;;;;;1.70;1.52;;;;;;;26.29;100.00;152652.31;5091595;28;20188;-62
2022/09/09 11:36:36;;;;;;;5.72;1.58;;;;;;;26.23;100.00;152638.22;5091925;28;20195;-62
2022/09/09 11:39:23;;;;;;;4.65;1.73;;;;;;;25.75;100.00;152516.78;5091646;28;20194;-62